sensor_id;sensor_type;location;lat;lon;timestamp;P1;durP1;ratioP1;P2;durP2;ratioP2
77788;SDS011;66980;44.384;0.512;2023-02-15T00:01:07;28.27;;;22.05;;
77788;SDS011;66980;44.384;0.512;2023-02-15T00:03:34;29.13;;;22.90;;
77788;SDS011;66980;44.384;0.512;2023-02-15T00:06:00;27.63;;;22.38;;
77788;SDS011;66980;44.384;0.512;2023-02-15T00:08:26;27.67;;;21.17;;
77788;SDS011;66980;44.384;0.512;2023-02-15T00:10:51;28.02;;;21.83;;
77788;SDS011;66980;44.384;0.512;2023-02-15T00:13:17;27.60;;;21.92;;
77788;SDS011;66980;44.384;0.512;2023-02-15T00:15:42;28.20;;;21.30;;
77788;SDS011;66980;44.384;0.512;2023-02-15T00:18:07;24.90;;;20.85;;
77788;SDS011;66980;44.384;0.512;2023-02-15T00:20:33;27.02;;;21.52;;
77788;SDS011;66980;44.384;0.512;2023-02-15T00:22:59;27.48;;;21.63;;
77788;SDS011;66980;44.384;0.512;2023-02-15T00:25:25;25.42;;;20.75;;
77788;SDS011;66980;44.384;0.512;2023-02-15T00:27:50;23.98;;;19.45;;
77788;SDS011;66980;44.384;0.512;2023-02-15T00:30:16;26.00;;;19.90;;
77788;SDS011;66980;44.384;0.512;2023-02-15T00:32:41;24.73;;;18.83;;
77788;SDS011;66980;44.384;0.512;2023-02-15T00:35:07;21.95;;;19.35;;
77788;SDS011;66980;44.384;0.512;2023-02-15T00:37:33;25.05;;;19.77;;
77788;SDS011;66980;44.384;0.512;2023-02-15T00:40:00;23.40;;;17.63;;
77788;SDS011;66980;44.384;0.512;2023-02-15T00:42:26;23.08;;;17.80;;
77788;SDS011;66980;44.384;0.512;2023-02-15T00:44:51;22.58;;;17.83;;
77788;SDS011;66980;44.384;0.512;2023-02-15T00:47:17;20.70;;;17.25;;
77788;SDS011;66980;44.384;0.512;2023-02-15T00:49:42;21.80;;;17.27;;
77788;SDS011;66980;44.384;0.512;2023-02-15T00:52:10;23.25;;;17.10;;
77788;SDS011;66980;44.384;0.512;2023-02-15T00:54:36;20.77;;;16.88;;
77788;SDS011;66980;44.384;0.512;2023-02-15T00:57:03;22.00;;;16.65;;
77788;SDS011;66980;44.384;0.512;2023-02-15T00:59:29;21.20;;;16.02;;
77788;SDS011;66980;44.384;0.512;2023-02-15T01:01:54;20.58;;;16.00;;
77788;SDS011;66980;44.384;0.512;2023-02-15T01:04:20;19.92;;;15.80;;
77788;SDS011;66980;44.384;0.512;2023-02-15T01:06:45;21.13;;;15.73;;
77788;SDS011;66980;44.384;0.512;2023-02-15T01:09:10;19.35;;;15.40;;
77788;SDS011;66980;44.384;0.512;2023-02-15T01:11:37;19.38;;;14.45;;
77788;SDS011;66980;44.384;0.512;2023-02-15T01:14:02;21.13;;;15.73;;
77788;SDS011;66980;44.384;0.512;2023-02-15T01:16:30;19.52;;;15.88;;
77788;SDS011;66980;44.384;0.512;2023-02-15T01:18:55;18.75;;;14.32;;
77788;SDS011;66980;44.384;0.512;2023-02-15T01:21:22;16.75;;;13.75;;
77788;SDS011;66980;44.384;0.512;2023-02-15T01:23:49;17.98;;;14.65;;
77788;SDS011;66980;44.384;0.512;2023-02-15T01:26:15;18.45;;;15.13;;
77788;SDS011;66980;44.384;0.512;2023-02-15T01:28:41;17.58;;;14.27;;
77788;SDS011;66980;44.384;0.512;2023-02-15T01:31:07;17.13;;;14.68;;
77788;SDS011;66980;44.384;0.512;2023-02-15T01:33:34;19.17;;;14.60;;
77788;SDS011;66980;44.384;0.512;2023-02-15T01:36:00;17.80;;;13.77;;
77788;SDS011;66980;44.384;0.512;2023-02-15T01:38:26;16.08;;;13.63;;
77788;SDS011;66980;44.384;0.512;2023-02-15T01:40:52;18.63;;;14.00;;
77788;SDS011;66980;44.384;0.512;2023-02-15T01:43:18;17.70;;;13.68;;
77788;SDS011;66980;44.384;0.512;2023-02-15T01:45:44;17.15;;;13.05;;
77788;SDS011;66980;44.384;0.512;2023-02-15T01:50:41;17.08;;;13.52;;
77788;SDS011;66980;44.384;0.512;2023-02-15T01:56:01;19.70;;;13.23;;
77788;SDS011;66980;44.384;0.512;2023-02-15T01:58:30;15.32;;;12.35;;
77788;SDS011;66980;44.384;0.512;2023-02-15T02:00:58;16.60;;;13.40;;
77788;SDS011;66980;44.384;0.512;2023-02-15T02:06:08;13.52;;;11.13;;
77788;SDS011;66980;44.384;0.512;2023-02-15T02:08:34;15.73;;;12.27;;
77788;SDS011;66980;44.384;0.512;2023-02-15T02:11:00;16.20;;;11.98;;
77788;SDS011;66980;44.384;0.512;2023-02-15T02:13:26;14.48;;;12.35;;
77788;SDS011;66980;44.384;0.512;2023-02-15T02:15:57;13.68;;;11.07;;
77788;SDS011;66980;44.384;0.512;2023-02-15T02:24:40;13.15;;;11.10;;
77788;SDS011;66980;44.384;0.512;2023-02-15T02:27:29;13.80;;;11.70;;
77788;SDS011;66980;44.384;0.512;2023-02-15T02:30:09;15.07;;;11.65;;
77788;SDS011;66980;44.384;0.512;2023-02-15T02:38:42;15.88;;;11.20;;
77788;SDS011;66980;44.384;0.512;2023-02-15T02:46:59;11.30;;;9.80;;
77788;SDS011;66980;44.384;0.512;2023-02-15T02:49:29;12.23;;;10.50;;
77788;SDS011;66980;44.384;0.512;2023-02-15T02:52:02;12.57;;;10.20;;
77788;SDS011;66980;44.384;0.512;2023-02-15T02:54:30;12.57;;;9.60;;
77788;SDS011;66980;44.384;0.512;2023-02-15T02:57:00;11.57;;;9.13;;
77788;SDS011;66980;44.384;0.512;2023-02-15T02:59:46;14.18;;;11.13;;
77788;SDS011;66980;44.384;0.512;2023-02-15T03:02:15;12.55;;;10.05;;
77788;SDS011;66980;44.384;0.512;2023-02-15T03:04:47;12.65;;;10.00;;
77788;SDS011;66980;44.384;0.512;2023-02-15T03:07:23;13.32;;;9.85;;
77788;SDS011;66980;44.384;0.512;2023-02-15T03:09:53;11.15;;;9.55;;
77788;SDS011;66980;44.384;0.512;2023-02-15T03:15:41;10.07;;;8.80;;
77788;SDS011;66980;44.384;0.512;2023-02-15T03:17:48;10.95;;;9.52;;
77788;SDS011;66980;44.384;0.512;2023-02-15T03:20:20;11.50;;;9.70;;
77788;SDS011;66980;44.384;0.512;2023-02-15T03:22:59;10.65;;;8.80;;
77788;SDS011;66980;44.384;0.512;2023-02-15T03:25:30;10.90;;;8.70;;
77788;SDS011;66980;44.384;0.512;2023-02-15T03:27:59;11.30;;;9.43;;
77788;SDS011;66980;44.384;0.512;2023-02-15T03:30:34;10.57;;;9.05;;
77788;SDS011;66980;44.384;0.512;2023-02-15T03:33:03;9.40;;;8.40;;
77788;SDS011;66980;44.384;0.512;2023-02-15T03:35:39;10.55;;;8.85;;
77788;SDS011;66980;44.384;0.512;2023-02-15T03:38:06;11.00;;;8.82;;
77788;SDS011;66980;44.384;0.512;2023-02-15T03:40:35;10.07;;;8.43;;
77788;SDS011;66980;44.384;0.512;2023-02-15T03:43:23;10.13;;;8.27;;
77788;SDS011;66980;44.384;0.512;2023-02-15T03:46:00;9.32;;;8.20;;
77788;SDS011;66980;44.384;0.512;2023-02-15T03:48:33;10.00;;;8.40;;
77788;SDS011;66980;44.384;0.512;2023-02-15T03:51:06;11.80;;;8.70;;
77788;SDS011;66980;44.384;0.512;2023-02-15T03:53:54;9.85;;;8.75;;
77788;SDS011;66980;44.384;0.512;2023-02-15T03:56:20;9.88;;;7.90;;
77788;SDS011;66980;44.384;0.512;2023-02-15T03:58:47;10.32;;;7.75;;
77788;SDS011;66980;44.384;0.512;2023-02-15T04:04:38;10.02;;;7.93;;
77788;SDS011;66980;44.384;0.512;2023-02-15T04:07:07;9.57;;;7.78;;
77788;SDS011;66980;44.384;0.512;2023-02-15T04:09:34;10.13;;;7.80;;
77788;SDS011;66980;44.384;0.512;2023-02-15T04:12:18;9.25;;;7.63;;
77788;SDS011;66980;44.384;0.512;2023-02-15T04:14:44;9.60;;;7.97;;
77788;SDS011;66980;44.384;0.512;2023-02-15T04:17:28;9.35;;;7.70;;
77788;SDS011;66980;44.384;0.512;2023-02-15T04:19:54;9.90;;;7.88;;
77788;SDS011;66980;44.384;0.512;2023-02-15T04:22:38;9.57;;;8.27;;
77788;SDS011;66980;44.384;0.512;2023-02-15T04:25:22;9.13;;;7.95;;
77788;SDS011;66980;44.384;0.512;2023-02-15T04:27:49;10.68;;;8.80;;
77788;SDS011;66980;44.384;0.512;2023-02-15T04:30:16;9.15;;;7.90;;
77788;SDS011;66980;44.384;0.512;2023-02-15T04:32:44;8.48;;;7.50;;
77788;SDS011;66980;44.384;0.512;2023-02-15T04:35:10;8.57;;;7.47;;
77788;SDS011;66980;44.384;0.512;2023-02-15T04:37:36;9.02;;;7.35;;
77788;SDS011;66980;44.384;0.512;2023-02-15T04:40:03;9.20;;;7.72;;
77788;SDS011;66980;44.384;0.512;2023-02-15T04:42:30;8.68;;;7.70;;
77788;SDS011;66980;44.384;0.512;2023-02-15T04:44:55;9.02;;;7.18;;
77788;SDS011;66980;44.384;0.512;2023-02-15T04:47:21;9.35;;;7.43;;
77788;SDS011;66980;44.384;0.512;2023-02-15T04:49:47;8.57;;;7.05;;
77788;SDS011;66980;44.384;0.512;2023-02-15T04:52:12;8.65;;;7.53;;
77788;SDS011;66980;44.384;0.512;2023-02-15T04:54:38;7.65;;;6.63;;
77788;SDS011;66980;44.384;0.512;2023-02-15T04:57:04;7.47;;;6.78;;
77788;SDS011;66980;44.384;0.512;2023-02-15T04:59:30;8.30;;;7.13;;
77788;SDS011;66980;44.384;0.512;2023-02-15T05:01:56;7.97;;;6.25;;
77788;SDS011;66980;44.384;0.512;2023-02-15T05:04:21;7.80;;;7.00;;
77788;SDS011;66980;44.384;0.512;2023-02-15T05:06:47;8.07;;;6.97;;
77788;SDS011;66980;44.384;0.512;2023-02-15T05:09:12;7.25;;;6.55;;
77788;SDS011;66980;44.384;0.512;2023-02-15T05:11:38;7.57;;;6.68;;
77788;SDS011;66980;44.384;0.512;2023-02-15T05:14:03;7.88;;;6.90;;
77788;SDS011;66980;44.384;0.512;2023-02-15T05:16:29;8.75;;;6.93;;
77788;SDS011;66980;44.384;0.512;2023-02-15T05:18:54;7.78;;;6.57;;
77788;SDS011;66980;44.384;0.512;2023-02-15T05:21:20;8.35;;;6.30;;
77788;SDS011;66980;44.384;0.512;2023-02-15T05:23:45;8.35;;;6.75;;
77788;SDS011;66980;44.384;0.512;2023-02-15T05:26:11;8.15;;;7.35;;
77788;SDS011;66980;44.384;0.512;2023-02-15T05:28:58;7.97;;;6.30;;
77788;SDS011;66980;44.384;0.512;2023-02-15T05:31:24;7.72;;;6.53;;
77788;SDS011;66980;44.384;0.512;2023-02-15T05:33:49;8.32;;;6.47;;
77788;SDS011;66980;44.384;0.512;2023-02-15T05:36:16;7.28;;;6.50;;
77788;SDS011;66980;44.384;0.512;2023-02-15T05:38:41;7.78;;;6.43;;
77788;SDS011;66980;44.384;0.512;2023-02-15T05:41:07;7.15;;;5.93;;
77788;SDS011;66980;44.384;0.512;2023-02-15T05:43:34;7.85;;;6.68;;
77788;SDS011;66980;44.384;0.512;2023-02-15T05:46:00;7.75;;;6.57;;
77788;SDS011;66980;44.384;0.512;2023-02-15T05:48:26;7.50;;;6.28;;
77788;SDS011;66980;44.384;0.512;2023-02-15T05:53:25;7.50;;;6.20;;
77788;SDS011;66980;44.384;0.512;2023-02-15T05:55:51;6.60;;;5.60;;
77788;SDS011;66980;44.384;0.512;2023-02-15T05:58:17;7.15;;;5.88;;
77788;SDS011;66980;44.384;0.512;2023-02-15T06:00:42;6.63;;;5.78;;
77788;SDS011;66980;44.384;0.512;2023-02-15T06:03:08;7.00;;;6.00;;
77788;SDS011;66980;44.384;0.512;2023-02-15T06:05:33;6.63;;;5.93;;
77788;SDS011;66980;44.384;0.512;2023-02-15T06:07:59;6.82;;;5.80;;
77788;SDS011;66980;44.384;0.512;2023-02-15T06:10:24;7.65;;;5.60;;
77788;SDS011;66980;44.384;0.512;2023-02-15T06:12:50;6.10;;;5.47;;
77788;SDS011;66980;44.384;0.512;2023-02-15T06:15:15;6.53;;;5.72;;
77788;SDS011;66980;44.384;0.512;2023-02-15T06:17:44;6.95;;;5.82;;
77788;SDS011;66980;44.384;0.512;2023-02-15T06:20:09;7.90;;;6.13;;
77788;SDS011;66980;44.384;0.512;2023-02-15T06:22:35;6.50;;;5.90;;
77788;SDS011;66980;44.384;0.512;2023-02-15T06:25:01;7.97;;;5.18;;
77788;SDS011;66980;44.384;0.512;2023-02-15T06:27:26;7.70;;;6.53;;
77788;SDS011;66980;44.384;0.512;2023-02-15T06:29:52;9.30;;;6.60;;
77788;SDS011;66980;44.384;0.512;2023-02-15T06:32:17;16.00;;;7.93;;
77788;SDS011;66980;44.384;0.512;2023-02-15T06:34:43;18.23;;;9.23;;
77788;SDS011;66980;44.384;0.512;2023-02-15T06:37:08;12.15;;;8.50;;
77788;SDS011;66980;44.384;0.512;2023-02-15T06:39:34;11.25;;;8.27;;
77788;SDS011;66980;44.384;0.512;2023-02-15T06:41:59;14.77;;;9.95;;
77788;SDS011;66980;44.384;0.512;2023-02-15T06:44:25;14.90;;;9.30;;
77788;SDS011;66980;44.384;0.512;2023-02-15T06:46:50;11.60;;;8.82;;
77788;SDS011;66980;44.384;0.512;2023-02-15T06:49:16;12.23;;;8.63;;
77788;SDS011;66980;44.384;0.512;2023-02-15T06:51:41;12.70;;;8.07;;
77788;SDS011;66980;44.384;0.512;2023-02-15T06:54:07;11.43;;;8.25;;
77788;SDS011;66980;44.384;0.512;2023-02-15T06:56:32;11.20;;;8.00;;
77788;SDS011;66980;44.384;0.512;2023-02-15T06:58:58;11.15;;;8.32;;
77788;SDS011;66980;44.384;0.512;2023-02-15T07:01:23;11.50;;;7.60;;
77788;SDS011;66980;44.384;0.512;2023-02-15T07:03:49;13.02;;;8.32;;
77788;SDS011;66980;44.384;0.512;2023-02-15T07:06:14;11.52;;;7.68;;
77788;SDS011;66980;44.384;0.512;2023-02-15T07:08:40;11.40;;;8.25;;
77788;SDS011;66980;44.384;0.512;2023-02-15T07:11:06;12.88;;;7.80;;
77788;SDS011;66980;44.384;0.512;2023-02-15T07:13:50;10.73;;;6.50;;
77788;SDS011;66980;44.384;0.512;2023-02-15T07:16:17;17.38;;;7.32;;
77788;SDS011;66980;44.384;0.512;2023-02-15T07:18:43;10.30;;;7.03;;
77788;SDS011;66980;44.384;0.512;2023-02-15T07:21:08;8.27;;;6.60;;
77788;SDS011;66980;44.384;0.512;2023-02-15T07:23:34;11.80;;;7.65;;
77788;SDS011;66980;44.384;0.512;2023-02-15T07:26:01;11.00;;;8.55;;
77788;SDS011;66980;44.384;0.512;2023-02-15T07:28:27;9.23;;;7.78;;
77788;SDS011;66980;44.384;0.512;2023-02-15T07:30:53;10.27;;;7.70;;
77788;SDS011;66980;44.384;0.512;2023-02-15T07:33:19;11.38;;;7.75;;
77788;SDS011;66980;44.384;0.512;2023-02-15T07:35:56;11.77;;;8.57;;
77788;SDS011;66980;44.384;0.512;2023-02-15T07:38:23;10.85;;;8.23;;
77788;SDS011;66980;44.384;0.512;2023-02-15T07:40:50;13.50;;;7.90;;
77788;SDS011;66980;44.384;0.512;2023-02-15T07:43:15;10.95;;;7.90;;
77788;SDS011;66980;44.384;0.512;2023-02-15T07:45:41;11.52;;;8.93;;
77788;SDS011;66980;44.384;0.512;2023-02-15T07:48:07;10.30;;;8.48;;
77788;SDS011;66980;44.384;0.512;2023-02-15T07:50:32;15.27;;;11.52;;
77788;SDS011;66980;44.384;0.512;2023-02-15T07:52:58;17.25;;;12.07;;
77788;SDS011;66980;44.384;0.512;2023-02-15T07:55:26;14.15;;;9.95;;
77788;SDS011;66980;44.384;0.512;2023-02-15T07:57:52;16.92;;;12.30;;
77788;SDS011;66980;44.384;0.512;2023-02-15T08:00:19;14.98;;;10.75;;
77788;SDS011;66980;44.384;0.512;2023-02-15T08:02:53;14.45;;;10.90;;
77788;SDS011;66980;44.384;0.512;2023-02-15T08:05:43;15.48;;;11.65;;
77788;SDS011;66980;44.384;0.512;2023-02-15T08:08:10;14.35;;;11.35;;
77788;SDS011;66980;44.384;0.512;2023-02-15T08:11:03;15.50;;;12.02;;
77788;SDS011;66980;44.384;0.512;2023-02-15T08:13:49;14.15;;;11.63;;
77788;SDS011;66980;44.384;0.512;2023-02-15T08:16:35;14.13;;;12.07;;
77788;SDS011;66980;44.384;0.512;2023-02-15T08:19:36;17.55;;;12.50;;
77788;SDS011;66980;44.384;0.512;2023-02-15T08:21:56;16.15;;;11.85;;
77788;SDS011;66980;44.384;0.512;2023-02-15T08:24:24;16.92;;;12.95;;
77788;SDS011;66980;44.384;0.512;2023-02-15T08:29:18;16.63;;;13.15;;
77788;SDS011;66980;44.384;0.512;2023-02-15T08:31:47;14.27;;;11.55;;
77788;SDS011;66980;44.384;0.512;2023-02-15T08:34:15;17.77;;;13.00;;
77788;SDS011;66980;44.384;0.512;2023-02-15T08:36:42;17.90;;;13.00;;
77788;SDS011;66980;44.384;0.512;2023-02-15T08:39:10;19.33;;;13.27;;
77788;SDS011;66980;44.384;0.512;2023-02-15T08:41:37;19.02;;;13.38;;
77788;SDS011;66980;44.384;0.512;2023-02-15T08:44:04;16.88;;;13.57;;
77788;SDS011;66980;44.384;0.512;2023-02-15T08:46:32;17.10;;;12.95;;
77788;SDS011;66980;44.384;0.512;2023-02-15T08:49:00;17.77;;;13.82;;
77788;SDS011;66980;44.384;0.512;2023-02-15T08:51:27;18.42;;;14.02;;
77788;SDS011;66980;44.384;0.512;2023-02-15T08:53:54;18.50;;;13.90;;
77788;SDS011;66980;44.384;0.512;2023-02-15T08:56:22;17.65;;;13.25;;
77788;SDS011;66980;44.384;0.512;2023-02-15T08:58:51;17.45;;;13.25;;
77788;SDS011;66980;44.384;0.512;2023-02-15T09:01:18;18.35;;;14.52;;
77788;SDS011;66980;44.384;0.512;2023-02-15T09:03:46;19.80;;;14.32;;
77788;SDS011;66980;44.384;0.512;2023-02-15T09:06:16;20.23;;;14.48;;
77788;SDS011;66980;44.384;0.512;2023-02-15T09:08:42;16.80;;;13.32;;
77788;SDS011;66980;44.384;0.512;2023-02-15T09:11:09;19.55;;;14.38;;
77788;SDS011;66980;44.384;0.512;2023-02-15T09:13:37;20.50;;;14.77;;
77788;SDS011;66980;44.384;0.512;2023-02-15T09:16:04;19.77;;;14.60;;
77788;SDS011;66980;44.384;0.512;2023-02-15T09:18:32;17.88;;;13.68;;
77788;SDS011;66980;44.384;0.512;2023-02-15T09:21:04;18.85;;;14.18;;
77788;SDS011;66980;44.384;0.512;2023-02-15T09:23:34;19.35;;;15.05;;
77788;SDS011;66980;44.384;0.512;2023-02-15T09:26:04;18.75;;;14.85;;
77788;SDS011;66980;44.384;0.512;2023-02-15T09:28:33;19.95;;;14.30;;
77788;SDS011;66980;44.384;0.512;2023-02-15T09:33:35;20.05;;;14.50;;
77788;SDS011;66980;44.384;0.512;2023-02-15T09:36:01;18.73;;;15.00;;
77788;SDS011;66980;44.384;0.512;2023-02-15T09:38:28;22.52;;;14.80;;
77788;SDS011;66980;44.384;0.512;2023-02-15T09:41:13;17.38;;;13.70;;
77788;SDS011;66980;44.384;0.512;2023-02-15T10:08:51;20.10;;;13.98;;
77788;SDS011;66980;44.384;0.512;2023-02-15T10:31:48;17.90;;;13.13;;
77788;SDS011;66980;44.384;0.512;2023-02-15T10:34:19;19.23;;;14.13;;
77788;SDS011;66980;44.384;0.512;2023-02-15T10:45:10;18.75;;;12.80;;
77788;SDS011;66980;44.384;0.512;2023-02-15T10:50:31;17.00;;;12.20;;
77788;SDS011;66980;44.384;0.512;2023-02-15T10:55:39;18.10;;;13.07;;
77788;SDS011;66980;44.384;0.512;2023-02-15T10:58:38;16.58;;;12.32;;
77788;SDS011;66980;44.384;0.512;2023-02-15T11:01:15;16.50;;;12.93;;
77788;SDS011;66980;44.384;0.512;2023-02-15T11:06:48;17.42;;;13.43;;
77788;SDS011;66980;44.384;0.512;2023-02-15T11:09:17;16.05;;;12.90;;
77788;SDS011;66980;44.384;0.512;2023-02-15T11:11:48;15.52;;;11.88;;
77788;SDS011;66980;44.384;0.512;2023-02-15T11:17:10;15.68;;;12.35;;
77788;SDS011;66980;44.384;0.512;2023-02-15T11:22:11;15.43;;;11.93;;
77788;SDS011;66980;44.384;0.512;2023-02-15T11:24:43;16.77;;;12.27;;
77788;SDS011;66980;44.384;0.512;2023-02-15T11:27:20;14.75;;;11.20;;
77788;SDS011;66980;44.384;0.512;2023-02-15T11:30:05;13.95;;;11.18;;
77788;SDS011;66980;44.384;0.512;2023-02-15T11:32:42;14.10;;;10.82;;
77788;SDS011;66980;44.384;0.512;2023-02-15T11:40:39;14.80;;;10.88;;
77788;SDS011;66980;44.384;0.512;2023-02-15T11:43:12;14.95;;;10.93;;
77788;SDS011;66980;44.384;0.512;2023-02-15T11:45:42;14.45;;;11.45;;
77788;SDS011;66980;44.384;0.512;2023-02-15T11:48:11;13.75;;;10.25;;
77788;SDS011;66980;44.384;0.512;2023-02-15T11:50:38;13.30;;;10.90;;
77788;SDS011;66980;44.384;0.512;2023-02-15T11:53:06;14.15;;;11.07;;
77788;SDS011;66980;44.384;0.512;2023-02-15T11:55:36;13.18;;;11.07;;
77788;SDS011;66980;44.384;0.512;2023-02-15T12:00:46;15.82;;;10.98;;
77788;SDS011;66980;44.384;0.512;2023-02-15T12:03:15;14.30;;;11.40;;
77788;SDS011;66980;44.384;0.512;2023-02-15T12:05:47;13.40;;;10.48;;
77788;SDS011;66980;44.384;0.512;2023-02-15T12:08:21;12.60;;;10.35;;
77788;SDS011;66980;44.384;0.512;2023-02-15T12:10:53;14.55;;;10.95;;
77788;SDS011;66980;44.384;0.512;2023-02-15T12:13:25;13.23;;;10.63;;
77788;SDS011;66980;44.384;0.512;2023-02-15T12:15:52;14.35;;;11.55;;
77788;SDS011;66980;44.384;0.512;2023-02-15T12:21:02;13.73;;;9.82;;
77788;SDS011;66980;44.384;0.512;2023-02-15T12:23:30;12.40;;;9.32;;
77788;SDS011;66980;44.384;0.512;2023-02-15T12:25:58;13.93;;;10.00;;
77788;SDS011;66980;44.384;0.512;2023-02-15T12:30:55;13.32;;;9.65;;
77788;SDS011;66980;44.384;0.512;2023-02-15T12:33:29;14.35;;;9.65;;
77788;SDS011;66980;44.384;0.512;2023-02-15T12:36:09;11.55;;;9.23;;
77788;SDS011;66980;44.384;0.512;2023-02-15T12:38:38;12.50;;;9.60;;
77788;SDS011;66980;44.384;0.512;2023-02-15T12:41:19;15.10;;;10.25;;
77788;SDS011;66980;44.384;0.512;2023-02-15T12:44:02;10.95;;;8.38;;
77788;SDS011;66980;44.384;0.512;2023-02-15T12:49:18;10.48;;;8.88;;
77788;SDS011;66980;44.384;0.512;2023-02-15T12:54:16;12.23;;;9.63;;
77788;SDS011;66980;44.384;0.512;2023-02-15T12:59:59;11.88;;;8.77;;
77788;SDS011;66980;44.384;0.512;2023-02-15T13:02:29;10.98;;;9.70;;
77788;SDS011;66980;44.384;0.512;2023-02-15T13:05:10;12.15;;;9.23;;
77788;SDS011;66980;44.384;0.512;2023-02-15T13:07:50;14.02;;;9.50;;
77788;SDS011;66980;44.384;0.512;2023-02-15T13:11:02;13.15;;;9.60;;
77788;SDS011;66980;44.384;0.512;2023-02-15T13:13:20;10.40;;;9.05;;
77788;SDS011;66980;44.384;0.512;2023-02-15T13:15:52;10.15;;;9.00;;
77788;SDS011;66980;44.384;0.512;2023-02-15T13:18:30;10.93;;;9.45;;
77788;SDS011;66980;44.384;0.512;2023-02-15T13:21:06;11.30;;;9.35;;
77788;SDS011;66980;44.384;0.512;2023-02-15T13:23:37;10.43;;;8.60;;
77788;SDS011;66980;44.384;0.512;2023-02-15T13:26:04;10.82;;;9.10;;
77788;SDS011;66980;44.384;0.512;2023-02-15T13:28:47;10.35;;;8.90;;
77788;SDS011;66980;44.384;0.512;2023-02-15T13:31:17;11.45;;;8.68;;
77788;SDS011;66980;44.384;0.512;2023-02-15T13:33:53;10.77;;;8.57;;
77788;SDS011;66980;44.384;0.512;2023-02-15T13:42:01;11.05;;;9.30;;
77788;SDS011;66980;44.384;0.512;2023-02-15T13:44:53;9.93;;;8.48;;
77788;SDS011;66980;44.384;0.512;2023-02-15T14:01:42;9.07;;;8.13;;
77788;SDS011;66980;44.384;0.512;2023-02-15T14:04:31;11.90;;;9.15;;
77788;SDS011;66980;44.384;0.512;2023-02-15T14:20:51;8.60;;;7.65;;
77788;SDS011;66980;44.384;0.512;2023-02-15T14:29:57;8.40;;;7.28;;
77788;SDS011;66980;44.384;0.512;2023-02-15T14:34:58;8.95;;;7.30;;
77788;SDS011;66980;44.384;0.512;2023-02-15T14:40:38;8.55;;;6.93;;
77788;SDS011;66980;44.384;0.512;2023-02-15T14:49:30;7.60;;;6.70;;
77788;SDS011;66980;44.384;0.512;2023-02-15T14:52:07;8.18;;;6.70;;
77788;SDS011;66980;44.384;0.512;2023-02-15T15:02:27;8.15;;;7.38;;
77788;SDS011;66980;44.384;0.512;2023-02-15T15:07:54;8.50;;;6.70;;
77788;SDS011;66980;44.384;0.512;2023-02-15T15:12:49;7.63;;;6.85;;
77788;SDS011;66980;44.384;0.512;2023-02-15T15:18:06;7.40;;;6.63;;
77788;SDS011;66980;44.384;0.512;2023-02-15T15:20:40;7.93;;;6.53;;
77788;SDS011;66980;44.384;0.512;2023-02-15T15:37:05;8.27;;;6.28;;
77788;SDS011;66980;44.384;0.512;2023-02-15T15:46:06;7.88;;;5.90;;
77788;SDS011;66980;44.384;0.512;2023-02-15T15:48:41;8.38;;;6.15;;
77788;SDS011;66980;44.384;0.512;2023-02-15T15:53:42;7.30;;;6.30;;
77788;SDS011;66980;44.384;0.512;2023-02-15T15:56:13;6.38;;;5.68;;
77788;SDS011;66980;44.384;0.512;2023-02-15T15:58:44;7.43;;;5.97;;
77788;SDS011;66980;44.384;0.512;2023-02-15T16:01:15;6.30;;;5.70;;
77788;SDS011;66980;44.384;0.512;2023-02-15T16:03:50;6.70;;;5.45;;
77788;SDS011;66980;44.384;0.512;2023-02-15T16:06:37;6.72;;;5.70;;
77788;SDS011;66980;44.384;0.512;2023-02-15T16:09:22;6.60;;;5.88;;
77788;SDS011;66980;44.384;0.512;2023-02-15T16:11:58;6.03;;;5.43;;
77788;SDS011;66980;44.384;0.512;2023-02-15T16:17:04;7.13;;;5.68;;
77788;SDS011;66980;44.384;0.512;2023-02-15T16:19:33;6.47;;;5.85;;
77788;SDS011;66980;44.384;0.512;2023-02-15T16:22:02;6.20;;;5.35;;
77788;SDS011;66980;44.384;0.512;2023-02-15T16:24:35;5.75;;;5.25;;
77788;SDS011;66980;44.384;0.512;2023-02-15T16:27:20;6.13;;;5.55;;
77788;SDS011;66980;44.384;0.512;2023-02-15T16:29:53;5.90;;;5.30;;
77788;SDS011;66980;44.384;0.512;2023-02-15T16:32:20;5.80;;;5.20;;
77788;SDS011;66980;44.384;0.512;2023-02-15T16:37:24;6.78;;;5.20;;
77788;SDS011;66980;44.384;0.512;2023-02-15T16:39:52;6.25;;;5.05;;
77788;SDS011;66980;44.384;0.512;2023-02-15T16:42:19;5.50;;;4.95;;
77788;SDS011;66980;44.384;0.512;2023-02-15T16:44:46;5.35;;;4.85;;
77788;SDS011;66980;44.384;0.512;2023-02-15T16:47:25;6.63;;;5.45;;
77788;SDS011;66980;44.384;0.512;2023-02-15T16:49:55;5.07;;;4.57;;
77788;SDS011;66980;44.384;0.512;2023-02-15T16:52:24;5.32;;;4.82;;
77788;SDS011;66980;44.384;0.512;2023-02-15T16:57:21;5.65;;;5.00;;
77788;SDS011;66980;44.384;0.512;2023-02-15T16:59:50;5.57;;;4.55;;
77788;SDS011;66980;44.384;0.512;2023-02-15T17:02:23;5.90;;;4.75;;
77788;SDS011;66980;44.384;0.512;2023-02-15T17:07:32;5.93;;;4.82;;
77788;SDS011;66980;44.384;0.512;2023-02-15T17:09:58;4.57;;;4.18;;
77788;SDS011;66980;44.384;0.512;2023-02-15T17:15:26;6.05;;;5.20;;
77788;SDS011;66980;44.384;0.512;2023-02-15T17:18:06;8.02;;;5.22;;
77788;SDS011;66980;44.384;0.512;2023-02-15T17:20:44;8.80;;;4.95;;
77788;SDS011;66980;44.384;0.512;2023-02-15T17:23:22;14.85;;;7.97;;
77788;SDS011;66980;44.384;0.512;2023-02-15T17:25:51;14.77;;;8.45;;
77788;SDS011;66980;44.384;0.512;2023-02-15T17:28:19;16.60;;;9.35;;
77788;SDS011;66980;44.384;0.512;2023-02-15T17:30:46;17.08;;;9.90;;
77788;SDS011;66980;44.384;0.512;2023-02-15T17:33:21;19.92;;;9.98;;
77788;SDS011;66980;44.384;0.512;2023-02-15T17:38:29;18.17;;;9.98;;
77788;SDS011;66980;44.384;0.512;2023-02-15T17:40:54;18.55;;;10.80;;
77788;SDS011;66980;44.384;0.512;2023-02-15T17:43:21;16.42;;;10.55;;
77788;SDS011;66980;44.384;0.512;2023-02-15T17:45:47;16.95;;;9.93;;
77788;SDS011;66980;44.384;0.512;2023-02-15T17:48:22;22.83;;;11.18;;
77788;SDS011;66980;44.384;0.512;2023-02-15T17:50:55;15.25;;;9.48;;
77788;SDS011;66980;44.384;0.512;2023-02-15T17:53:21;18.70;;;9.80;;
77788;SDS011;66980;44.384;0.512;2023-02-15T17:55:49;32.72;;;13.18;;
77788;SDS011;66980;44.384;0.512;2023-02-15T17:58:15;40.58;;;18.08;;
77788;SDS011;66980;44.384;0.512;2023-02-15T18:00:44;43.95;;;18.75;;
77788;SDS011;66980;44.384;0.512;2023-02-15T18:03:50;44.90;;;17.98;;
77788;SDS011;66980;44.384;0.512;2023-02-15T18:06:39;41.38;;;18.02;;
77788;SDS011;66980;44.384;0.512;2023-02-15T18:09:26;36.00;;;17.15;;
77788;SDS011;66980;44.384;0.512;2023-02-15T18:12:20;34.17;;;18.35;;
77788;SDS011;66980;44.384;0.512;2023-02-15T18:14:51;36.78;;;17.10;;
77788;SDS011;66980;44.384;0.512;2023-02-15T18:17:25;32.08;;;15.77;;
77788;SDS011;66980;44.384;0.512;2023-02-15T18:19:54;40.70;;;17.58;;
77788;SDS011;66980;44.384;0.512;2023-02-15T18:22:20;35.38;;;16.77;;
77788;SDS011;66980;44.384;0.512;2023-02-15T18:24:46;31.55;;;16.95;;
77788;SDS011;66980;44.384;0.512;2023-02-15T18:27:14;34.13;;;16.17;;
77788;SDS011;66980;44.384;0.512;2023-02-15T18:29:40;30.52;;;15.77;;
77788;SDS011;66980;44.384;0.512;2023-02-15T18:32:07;27.60;;;15.43;;
77788;SDS011;66980;44.384;0.512;2023-02-15T18:34:39;29.13;;;19.50;;
77788;SDS011;66980;44.384;0.512;2023-02-15T18:37:11;37.72;;;22.58;;
77788;SDS011;66980;44.384;0.512;2023-02-15T18:39:42;43.53;;;28.00;;
77788;SDS011;66980;44.384;0.512;2023-02-15T18:42:20;47.00;;;28.00;;
77788;SDS011;66980;44.384;0.512;2023-02-15T18:45:03;48.58;;;27.35;;
77788;SDS011;66980;44.384;0.512;2023-02-15T18:47:57;38.97;;;23.60;;